Time;durP1;ratioP1;P1;durP2;ratioP2;P2;SDS_P1;SDS_P2;PMS_P1;PMS_P2;Temp;Humidity;BMP_temperature;BMP_pressure;BME280_temperature;BME280_humidity;BME280_pressure;Samples;Min_cycle;Max_cycle;Signal;HPM_P1;HPM_P2
2023/06/15 00:00:00;;;;;;;8.10;7.50;;;;;;;23.49;80.14;99240.22;5050452;28;20678;-65
2023/06/15 00:02:27;;;;;;;13.00;7.90;;;;;;;23.49;81.62;99231.31;5051372;28;20199;-64
2023/06/15 00:04:53;;;;;;;8.43;7.70;;;;;;;23.51;81.73;99235.34;5045937;28;20195;-65
2023/06/15 00:07:21;;;;;;;11.13;7.10;;;;;;;23.56;80.10;99238.00;5035100;28;20196;-65
2023/06/15 00:09:48;;;;;;;9.00;7.03;;;;;;;23.44;79.59;99232.16;5035220;28;20246;-65
2023/06/15 00:12:15;;;;;;;6.10;5.50;;;;;;;23.46;78.98;99237.28;5043432;28;20260;-65
2023/06/15 00:14:41;;;;;;;6.03;5.63;;;;;;;23.50;78.62;99249.19;5054796;28;20622;-65
2023/06/15 00:17:11;;;;;;;7.60;5.50;;;;;;;23.51;77.65;99245.38;5054887;28;20650;-64
2023/06/15 00:19:38;;;;;;;5.50;5.20;;;;;;;23.42;76.83;99245.19;5055353;28;20225;-64
2023/06/15 00:22:06;;;;;;;5.40;5.10;;;;;;;23.38;76.88;99246.84;5054825;28;20195;-65
2023/06/15 00:24:34;;;;;;;6.10;5.53;;;;;;;23.38;76.89;99236.00;5052964;28;20696;-65
2023/06/15 00:27:00;;;;;;;5.67;5.27;;;;;;;23.35;76.45;99242.00;5054705;28;20254;-64
2023/06/15 00:29:27;;;;;;;5.70;5.30;;;;;;;23.30;76.73;99238.50;5054418;28;20203;-64
2023/06/15 00:31:54;;;;;;;5.87;5.40;;;;;;;23.24;76.57;99240.47;5054027;28;20252;-65
2023/06/15 00:34:20;;;;;;;5.57;5.17;;;;;;;23.20;76.76;99239.41;5052881;28;20187;-64
2023/06/15 00:36:47;;;;;;;5.73;5.43;;;;;;;23.18;77.12;99238.88;5054571;28;20253;-64
2023/06/15 00:39:14;;;;;;;5.40;4.93;;;;;;;23.14;77.29;99235.09;5054378;28;20241;-64
2023/06/15 00:41:42;;;;;;;5.53;5.13;;;;;;;23.07;77.39;99234.59;5053938;28;20189;-64
2023/06/15 00:44:09;;;;;;;5.30;4.90;;;;;;;23.01;77.59;99243.88;5014511;28;20204;-64
2023/06/15 00:46:36;;;;;;;5.77;5.37;;;;;;;22.93;79.14;99240.94;5014296;28;20598;-64
2023/06/15 00:49:04;;;;;;;6.10;5.53;;;;;;;22.94;79.47;99232.53;5014401;28;20345;-64
2023/06/15 00:51:31;;;;;;;6.00;5.50;;;;;;;22.92;79.32;99237.44;5014641;28;20192;-64
2023/06/15 00:53:59;;;;;;;6.07;5.77;;;;;;;22.90;78.34;99227.97;5014386;28;20564;-66
2023/06/15 00:56:29;;;;;;;6.30;5.80;;;;;;;22.85;78.50;99233.41;5034508;28;20213;-65
2023/06/15 00:58:57;;;;;;;5.17;4.83;;;;;;;22.82;78.32;99237.50;5034538;28;20210;-64
2023/06/15 01:01:25;;;;;;;6.20;5.63;;;;;;;22.83;78.48;99228.28;5034206;28;20256;-65
2023/06/15 01:03:54;;;;;;;5.40;5.10;;;;;;;22.80;78.37;99228.03;5033913;28;20241;-65
2023/06/15 01:06:24;;;;;;;6.60;5.13;;;;;;;22.74;78.12;99223.78;5034215;28;20232;-64
2023/06/15 01:08:53;;;;;;;5.50;5.20;;;;;;;22.59;78.36;99232.81;5034108;28;20190;-64
2023/06/15 01:11:22;;;;;;;5.50;5.20;;;;;;;22.55;78.76;99241.75;5033799;28;20193;-65
2023/06/15 01:13:50;;;;;;;5.57;5.07;;;;;;;22.41;79.09;99230.69;5033952;28;20190;-64
2023/06/15 01:16:24;;;;;;;6.17;5.60;;;;;;;22.34;79.63;99229.38;5033011;28;20259;-64
2023/06/15 01:18:56;;;;;;;5.57;5.17;;;;;;;22.29;79.82;99227.50;5039060;28;20189;-64
2023/06/15 01:21:26;;;;;;;6.27;5.77;;;;;;;22.12;80.64;99237.84;5053896;28;20240;-65
2023/06/15 01:24:03;;;;;;;5.87;5.47;;;;;;;22.10;81.18;99231.09;5053422;28;20193;-66
2023/06/15 01:26:33;;;;;;;6.43;5.93;;;;;;;22.05;81.26;99226.50;5053341;28;20710;-66
2023/06/15 01:29:00;;;;;;;6.23;5.73;;;;;;;21.92;82.01;99221.69;5042309;28;20224;-68
2023/06/15 01:31:28;;;;;;;6.40;5.77;;;;;;;21.81;82.88;99214.69;5033409;28;20205;-67
2023/06/15 01:33:55;;;;;;;8.20;7.13;;;;;;;21.70;83.42;99205.00;5033648;28;20193;-66
2023/06/15 01:36:22;;;;;;;7.17;6.73;;;;;;;21.63;83.54;99222.56;5033319;28;20204;-66
2023/06/15 01:38:52;;;;;;;10.70;7.37;;;;;;;21.50;84.29;99207.72;5044785;28;20194;-66
2023/06/15 01:41:21;;;;;;;9.13;8.37;;;;;;;21.36;84.75;99212.06;5033589;28;20291;-66
2023/06/15 01:43:50;;;;;;;8.47;7.97;;;;;;;21.32;85.21;99205.59;5032998;28;20201;-66
2023/06/15 01:46:18;;;;;;;9.27;8.43;;;;;;;21.18;85.67;99204.53;5033003;28;20279;-66
2023/06/15 01:48:45;;;;;;;8.73;8.13;;;;;;;21.16;86.33;99201.31;5033263;28;20189;-66
2023/06/15 01:51:12;;;;;;;7.83;7.33;;;;;;;21.21;86.34;99204.00;5033318;28;20197;-65
2023/06/15 01:53:39;;;;;;;7.60;7.00;;;;;;;21.25;86.31;99205.06;5033427;28;20251;-64
2023/06/15 01:56:06;;;;;;;7.93;7.23;;;;;;;21.21;86.34;99197.75;5032951;28;20201;-65
2023/06/15 01:58:32;;;;;;;7.50;6.80;;;;;;;21.20;86.49;99207.78;5032846;28;20201;-64
2023/06/15 02:01:00;;;;;;;7.27;5.93;;;;;;;21.15;86.29;99207.75;5033313;28;20209;-66
2023/06/15 02:03:27;;;;;;;7.27;6.60;;;;;;;21.08;86.47;99204.53;5032655;28;20688;-65
2023/06/15 02:05:54;;;;;;;6.33;5.93;;;;;;;21.08;86.32;99209.94;5032901;28;20276;-64
2023/06/15 02:08:21;;;;;;;6.67;6.10;;;;;;;21.06;86.27;99214.00;5032859;28;20665;-64
2023/06/15 02:10:47;;;;;;;7.47;5.83;;;;;;;20.97;86.62;99211.00;5033012;28;20270;-64
2023/06/15 02:13:14;;;;;;;7.03;6.47;;;;;;;20.98;86.82;99204.53;5036078;28;20184;-64
2023/06/15 02:15:41;;;;;;;5.77;5.37;;;;;;;20.99;86.71;99198.03;5013327;28;20300;-64
2023/06/15 02:18:14;;;;;;;9.27;6.53;;;;;;;20.93;86.90;99201.84;5012937;28;20272;-64
2023/06/15 02:20:41;;;;;;;6.30;5.70;;;;;;;20.92;87.03;99204.81;5013386;28;20194;-64
2023/06/15 02:23:08;;;;;;;7.23;6.83;;;;;;;20.90;86.94;99205.03;5012609;28;20208;-64
2023/06/15 02:25:35;;;;;;;7.53;6.90;;;;;;;20.88;86.54;99204.50;5021332;28;20758;-64
2023/06/15 02:28:02;;;;;;;7.77;7.23;;;;;;;20.88;87.04;99204.50;5032403;28;20259;-65
2023/06/15 02:30:28;;;;;;;7.93;7.07;;;;;;;20.86;87.00;99212.06;5032340;28;20239;-65
2023/06/15 02:33:00;;;;;;;9.17;7.00;;;;;;;20.85;86.87;99215.00;5032166;28;20232;-65
2023/06/15 02:35:28;;;;;;;7.00;6.40;;;;;;;20.85;86.98;99213.13;5032795;28;20217;-64
2023/06/15 02:37:54;;;;;;;7.60;6.90;;;;;;;20.86;86.96;99212.06;5037302;28;20189;-65
2023/06/15 02:40:21;;;;;;;6.90;6.30;;;;;;;20.87;87.07;99208.28;5041876;28;20253;-65
2023/06/15 02:42:48;;;;;;;8.00;6.87;;;;;;;20.87;86.69;99211.00;5031574;28;20197;-65
2023/06/15 02:45:15;;;;;;;8.27;6.80;;;;;;;20.77;86.11;99208.28;5032449;28;20251;-65
2023/06/15 02:47:42;;;;;;;7.63;6.57;;;;;;;20.75;86.26;99215.03;5031909;28;20221;-65
2023/06/15 02:50:10;;;;;;;8.87;8.00;;;;;;;20.77;86.30;99213.66;5035506;28;20208;-64
2023/06/15 02:52:38;;;;;;;6.27;5.87;;;;;;;20.85;86.32;99215.84;5032339;28;20194;-64
2023/06/15 02:55:06;;;;;;;6.97;6.27;;;;;;;20.81;85.92;99214.75;5031926;28;20627;-65
2023/06/15 02:57:33;;;;;;;17.60;14.37;;;;;;;20.88;85.87;99220.72;5032424;28;20198;-65
2023/06/15 02:59:59;;;;;;;9.53;8.07;;;;;;;20.89;85.69;99221.50;5032377;28;20243;-66
2023/06/15 03:02:27;;;;;;;6.83;5.87;;;;;;;20.89;85.85;99216.91;5039057;28;20189;-65
2023/06/15 03:04:54;;;;;;;11.40;6.37;;;;;;;20.95;85.46;99218.56;5045793;28;20283;-65
2023/06/15 03:07:22;;;;;;;8.03;7.33;;;;;;;21.00;85.25;99224.00;5031947;28;20217;-65
2023/06/15 03:09:52;;;;;;;6.37;5.77;;;;;;;21.04;84.54;99230.47;5032098;28;20690;-65
2023/06/15 03:12:20;;;;;;;9.10;5.87;;;;;;;21.03;84.45;99226.13;5031809;28;20198;-65
2023/06/15 03:14:50;;;;;;;8.73;5.97;;;;;;;21.09;84.89;99216.97;5035639;28;20274;-65
2023/06/15 03:17:17;;;;;;;8.93;8.23;;;;;;;21.13;84.29;99233.44;5051683;28;20722;-65
2023/06/15 03:19:46;;;;;;;7.63;7.07;;;;;;;21.16;84.39;99232.91;5051756;28;20188;-65
2023/06/15 03:22:13;;;;;;;7.50;6.80;;;;;;;21.23;83.70;99228.84;5051544;28;20196;-65
2023/06/15 03:24:41;;;;;;;8.40;6.83;;;;;;;21.28;83.98;99225.31;5051419;28;20201;-65
2023/06/15 03:27:10;;;;;;;11.60;9.63;;;;;;;21.31;83.51;99236.41;5051047;28;20723;-64
2023/06/15 03:29:37;;;;;;;6.47;6.07;;;;;;;20.99;84.47;99222.34;5051452;28;20188;-65
2023/06/15 03:32:05;;;;;;;5.93;5.50;;;;;;;21.08;84.58;99225.34;5051752;28;20278;-66
2023/06/15 03:34:32;;;;;;;8.37;6.80;;;;;;;21.02;84.95;99226.41;5050903;28;20255;-65
2023/06/15 03:36:59;;;;;;;7.57;6.80;;;;;;;21.05;84.91;99223.16;5051891;28;20262;-65
2023/06/15 03:39:25;;;;;;;7.03;6.33;;;;;;;21.04;84.54;99221.56;5051736;28;20270;-66
2023/06/15 03:41:52;;;;;;;7.00;6.47;;;;;;;20.84;84.53;99213.41;5051023;28;20181;-67
2023/06/15 03:44:21;;;;;;;6.93;6.33;;;;;;;20.95;84.92;99223.97;5055030;28;20188;-66
2023/06/15 03:46:47;;;;;;;7.50;6.33;;;;;;;20.98;84.65;99220.72;5055536;28;20220;-65
2023/06/15 03:49:14;;;;;;;7.00;6.30;;;;;;;20.97;84.35;99219.13;5055704;28;20207;-65
2023/06/15 03:51:41;;;;;;;6.80;6.20;;;;;;;21.03;84.54;99218.03;5053226;28;20196;-64
2023/06/15 03:54:08;;;;;;;10.03;6.33;;;;;;;21.15;84.42;99218.56;5035453;28;20224;-65
2023/06/15 03:56:34;;;;;;;6.40;5.73;;;;;;;21.14;84.19;99222.34;5035580;28;20255;-65
2023/06/15 03:59:01;;;;;;;7.13;6.50;;;;;;;21.31;83.92;99219.38;5035033;28;20193;-66
2023/06/15 04:01:29;;;;;;;8.53;7.50;;;;;;;21.43;83.05;99226.13;5035649;28;20189;-66
2023/06/15 04:03:56;;;;;;;7.27;6.43;;;;;;;21.77;82.24;99239.88;5035452;28;20205;-66
2023/06/15 04:06:23;;;;;;;7.70;7.00;;;;;;;22.35;81.17;99231.81;5035153;28;20217;-66
2023/06/15 04:08:50;;;;;;;8.17;7.33;;;;;;;23.47;74.88;99253.28;5034853;28;20209;-65
2023/06/15 04:11:17;;;;;;;8.83;7.17;;;;;;;24.73;70.80;99261.63;5034925;28;20193;-65
2023/06/15 04:13:45;;;;;;;7.53;6.30;;;;;;;25.64;67.00;99268.34;5034913;28;20752;-65
2023/06/15 04:16:11;;;;;;;8.47;7.27;;;;;;;26.78;61.91;99278.09;5034723;28;20762;-65
2023/06/15 04:18:40;;;;;;;8.60;7.73;;;;;;;27.94;58.59;99285.06;5034625;28;20804;-66
2023/06/15 04:21:07;;;;;;;9.67;8.10;;;;;;;28.96;55.27;99301.78;5034690;28;20579;-64
2023/06/15 04:23:34;;;;;;;6.60;6.07;;;;;;;29.84;52.16;99283.88;5034636;28;20199;-65
2023/06/15 04:26:03;;;;;;;10.83;6.27;;;;;;;30.51;48.37;99288.28;5034798;28;20224;-66
2023/06/15 04:28:30;;;;;;;7.17;5.43;;;;;;;31.09;46.58;99282.75;5034859;28;20197;-66
2023/06/15 04:31:07;;;;;;;6.57;5.73;;;;;;;31.18;46.47;99280.72;5034844;28;20197;-68
2023/06/15 04:33:34;;;;;;;6.77;5.10;;;;;;;32.00;44.30;99291.56;5034966;28;20189;-68
2023/06/15 04:36:03;;;;;;;5.57;5.00;;;;;;;32.65;40.65;99291.38;5029799;28;20205;-69
2023/06/15 04:38:30;;;;;;;4.73;4.37;;;;;;;33.18;40.65;99291.06;5014815;28;20194;-68
2023/06/15 04:40:57;;;;;;;4.90;4.50;;;;;;;33.37;39.39;99284.94;5014826;28;20230;-68
2023/06/15 04:43:24;;;;;;;6.13;4.10;;;;;;;33.85;39.07;99289.44;5013194;28;20198;-68
2023/06/15 04:45:51;;;;;;;4.70;4.20;;;;;;;34.53;37.04;99293.56;5013079;28;20248;-66
2023/06/15 04:48:19;;;;;;;4.60;4.28;;;;;;;35.14;36.44;99294.53;5030129;28;20287;-67
2023/06/15 04:50:48;;;;;;;6.00;3.80;;;;;;;35.74;35.25;99299.34;5034474;28;20201;-66
2023/06/15 04:53:18;;;;;;;6.93;4.10;;;;;;;36.43;33.47;99304.59;5034031;28;20304;-67
2023/06/15 04:55:45;;;;;;;7.47;4.72;;;;;;;36.45;32.91;99291.97;5033878;28;20221;-65
2023/06/15 04:58:12;;;;;;;4.93;4.50;;;;;;;36.75;32.35;99305.91;5033837;28;20199;-65
2023/06/15 05:00:39;;;;;;;4.90;4.55;;;;;;;36.78;31.82;99302.38;5033895;28;20297;-65
2023/06/15 05:03:06;;;;;;;5.40;4.00;;;;;;;36.10;32.67;99302.41;5033222;28;20189;-67
2023/06/15 05:05:33;;;;;;;7.43;4.80;;;;;;;35.85;33.04;99289.31;5039205;28;20192;-65
2023/06/15 05:07:59;;;;;;;4.65;4.32;;;;;;;36.12;32.66;99304.81;5033613;28;20279;-68
2023/06/15 05:10:28;;;;;;;7.60;3.90;;;;;;;36.66;32.18;99297.81;5033718;28;20263;-67
2023/06/15 05:12:54;;;;;;;8.05;4.22;;;;;;;36.84;32.05;99298.13;5033884;28;20263;-67
2023/06/15 05:15:21;;;;;;;6.93;5.00;;;;;;;36.46;31.60;99304.63;5033600;28;20194;-66
2023/06/15 05:17:48;;;;;;;7.07;4.88;;;;;;;35.63;34.61;99303.88;5034219;28;20197;-66
2023/06/15 05:20:15;;;;;;;6.68;4.72;;;;;;;35.22;35.43;99293.53;5028102;28;20197;-64
2023/06/15 05:22:41;;;;;;;10.45;4.95;;;;;;;34.63;37.09;99281.94;5031249;28;20610;-70
2023/06/15 05:25:09;;;;;;;10.68;5.25;;;;;;;35.49;34.02;99293.38;5023890;28;20256;-66
2023/06/15 05:27:37;;;;;;;6.85;5.45;;;;;;;35.93;32.36;99302.13;5014054;28;20672;-67
2023/06/15 05:30:07;;;;;;;8.73;4.95;;;;;;;35.40;33.71;99300.28;5022861;28;20193;-67
2023/06/15 05:32:38;;;;;;;7.07;4.55;;;;;;;34.73;35.35;99297.94;5033721;28;20185;-66
2023/06/15 05:35:07;;;;;;;6.32;4.53;;;;;;;34.31;35.92;99296.94;5030866;28;20280;-67
2023/06/15 05:37:34;;;;;;;5.07;4.78;;;;;;;34.64;35.08;99289.06;5033729;28;20197;-67
2023/06/15 05:40:02;;;;;;;5.32;4.85;;;;;;;34.95;34.71;99289.81;5041435;28;20716;-69
2023/06/15 05:42:28;;;;;;;5.15;4.75;;;;;;;34.84;34.17;99287.97;5033955;28;20190;-68
2023/06/15 05:44:57;;;;;;;9.55;5.28;;;;;;;34.30;35.93;99285.09;5032263;28;20224;-69
2023/06/15 05:47:23;;;;;;;5.40;4.90;;;;;;;34.48;35.90;99280.00;5033104;28;20225;-74
2023/06/15 05:49:50;;;;;;;5.97;5.45;;;;;;;34.54;35.83;99284.91;5048452;28;20186;-66
2023/06/15 05:52:17;;;;;;;5.60;5.10;;;;;;;34.48;34.96;99293.81;5033962;28;20206;-66
2023/06/15 05:54:44;;;;;;;5.45;4.97;;;;;;;34.21;35.43;99291.94;5025563;28;20732;-68
2023/06/15 05:57:11;;;;;;;9.35;5.70;;;;;;;33.67;37.17;99285.38;5012815;28;20662;-67
2023/06/15 05:59:38;;;;;;;7.55;5.28;;;;;;;33.30;38.27;99290.22;5015080;28;20191;-67
2023/06/15 06:02:08;;;;;;;7.63;5.47;;;;;;;32.80;39.19;99287.13;5032564;28;20205;-66
2023/06/15 06:04:35;;;;;;;7.60;5.47;;;;;;;32.18;40.02;99279.22;5032550;28;20235;-66
2023/06/15 06:07:05;;;;;;;5.83;5.33;;;;;;;31.88;41.70;99290.75;5032905;28;20225;-66
2023/06/15 06:09:32;;;;;;;6.43;5.37;;;;;;;31.83;41.39;99285.47;5032992;28;20259;-66
2023/06/15 06:11:58;;;;;;;5.80;5.37;;;;;;;31.48;42.57;99279.50;5030324;28;20209;-67
2023/06/15 06:14:25;;;;;;;7.07;6.17;;;;;;;30.94;43.62;99280.59;5030739;28;20225;-65
2023/06/15 06:16:52;;;;;;;5.80;5.30;;;;;;;30.89;45.33;99272.56;5031863;28;20666;-67
2023/06/15 06:19:20;;;;;;;6.83;6.23;;;;;;;30.92;44.16;99271.91;5032769;28;20263;-67
2023/06/15 06:21:47;;;;;;;6.83;6.10;;;;;;;31.02;44.48;99265.19;5032081;28;20653;-67
2023/06/15 06:24:13;;;;;;;6.10;5.63;;;;;;;31.51;43.74;99273.34;5031957;28;20216;-68
2023/06/15 06:26:40;;;;;;;6.37;5.00;;;;;;;32.41;41.56;99274.91;5031183;28;20621;-69
2023/06/15 06:29:06;;;;;;;5.83;5.40;;;;;;;32.89;39.77;99274.06;5020829;28;20256;-67
2023/06/15 06:31:33;;;;;;;6.77;5.90;;;;;;;33.17;39.25;99270.19;5010520;28;20252;-67
2023/06/15 06:34:00;;;;;;;7.43;5.33;;;;;;;33.03;39.62;99275.28;5009084;28;20244;-68
2023/06/15 06:36:28;;;;;;;6.60;5.83;;;;;;;32.70;40.47;99277.38;5016761;28;20189;-63
2023/06/15 06:38:55;;;;;;;6.43;6.13;;;;;;;32.77;39.96;99272.13;5032400;28;20229;-73
2023/06/15 06:41:21;;;;;;;11.10;6.50;;;;;;;32.99;39.80;99277.13;5030952;28;20186;-69
2023/06/15 06:43:48;;;;;;;9.57;5.90;;;;;;;33.26;39.74;99265.34;5021537;28;20201;-68
2023/06/15 06:46:15;;;;;;;6.47;5.90;;;;;;;33.77;38.46;99277.41;5029919;28;20204;-68
2023/06/15 06:48:41;;;;;;;7.40;5.30;;;;;;;33.28;40.26;99265.78;5030797;28;20223;-68
2023/06/15 06:51:08;;;;;;;6.50;6.00;;;;;;;32.59;40.50;99275.47;5045204;28;20266;-66
2023/06/15 06:53:36;;;;;;;7.63;6.67;;;;;;;32.59;40.50;99273.50;5049476;28;20258;-66
2023/06/15 06:56:03;;;;;;;8.77;6.13;;;;;;;32.47;40.63;99273.50;5037894;28;20272;-68
2023/06/15 06:58:30;;;;;;;6.20;5.70;;;;;;;32.20;41.74;99274.19;5030348;28;20192;-67
2023/06/15 07:00:56;;;;;;;6.97;5.67;;;;;;;31.87;43.06;99267.97;5041192;28;20194;-66
2023/06/15 07:03:23;;;;;;;7.60;5.17;;;;;;;31.59;44.98;99272.44;5046006;28;20229;-67
2023/06/15 07:05:50;;;;;;;11.23;6.70;;;;;;;31.27;45.42;99265.00;5036830;28;20254;-66
2023/06/15 07:08:18;;;;;;;10.50;5.40;;;;;;;31.20;46.58;99269.41;5035378;28;20216;-66
2023/06/15 07:10:46;;;;;;;7.87;6.60;;;;;;;31.06;46.28;99255.97;5047832;28;20197;-65
2023/06/15 07:13:13;;;;;;;6.23;5.87;;;;;;;30.99;46.98;99266.66;5032150;28;20637;-68
2023/06/15 07:15:39;;;;;;;6.73;6.17;;;;;;;30.94;46.82;99257.88;5029670;28;20193;-69
2023/06/15 07:18:07;;;;;;;9.23;6.23;;;;;;;30.90;46.58;99263.19;5030495;28;20267;-66
2023/06/15 07:20:33;;;;;;;7.97;7.37;;;;;;;30.29;48.14;99252.91;5029374;28;20197;-66
2023/06/15 07:23:00;;;;;;;6.80;6.30;;;;;;;30.42;48.86;99262.84;5042427;28;20238;-67
2023/06/15 07:25:27;;;;;;;7.93;6.90;;;;;;;30.60;47.84;99264.34;5033391;28;20661;-66
2023/06/15 07:27:55;;;;;;;13.83;8.07;;;;;;;30.76;46.52;99267.34;5050943;28;20231;-66
2023/06/15 07:30:22;;;;;;;8.03;7.53;;;;;;;30.62;47.83;99259.31;5035094;28;20850;-69
2023/06/15 07:32:48;;;;;;;8.03;7.23;;;;;;;30.77;47.33;99264.25;5027619;28;20281;-68
2023/06/15 07:35:15;;;;;;;8.53;7.30;;;;;;;31.16;46.84;99266.56;5018589;28;20198;-67
2023/06/15 07:37:42;;;;;;;8.43;7.47;;;;;;;31.36;45.42;99271.22;5022953;28;20227;-69
2023/06/15 07:40:09;;;;;;;8.03;7.53;;;;;;;31.39;45.22;99267.81;5038311;28;20228;-70
2023/06/15 07:42:36;;;;;;;8.40;7.60;;;;;;;31.36;45.49;99265.72;5031821;28;20202;-66
2023/06/15 07:45:05;;;;;;;7.93;7.43;;;;;;;30.34;47.57;99255.47;5030663;28;20193;-69
2023/06/15 07:47:31;;;;;;;10.20;6.77;;;;;;;30.24;48.71;99250.38;5050578;28;20273;-67
2023/06/15 07:49:58;;;;;;;7.70;7.27;;;;;;;30.07;48.86;99244.94;5041799;28;20202;-69
2023/06/15 07:52:25;;;;;;;11.60;7.80;;;;;;;30.30;48.87;99242.78;5030713;28;20197;-68
2023/06/15 07:54:52;;;;;;;12.97;7.50;;;;;;;30.52;48.02;99250.69;5038657;28;20197;-67
2023/06/15 07:57:18;;;;;;;8.43;7.10;;;;;;;30.92;47.72;99249.97;5051200;28;20200;-67
2023/06/15 07:59:45;;;;;;;7.27;6.87;;;;;;;31.19;46.95;99238.41;5048768;28;20250;-67
2023/06/15 08:02:13;;;;;;;10.00;6.53;;;;;;;31.65;46.03;99246.34;5037116;28;20227;-67
2023/06/15 08:04:40;;;;;;;7.10;6.40;;;;;;;31.84;45.78;99240.34;5044690;28;20193;-68
2023/06/15 08:07:07;;;;;;;10.10;7.00;;;;;;;32.12;44.94;99250.34;5030863;28;20198;-68
2023/06/15 08:09:34;;;;;;;11.53;6.90;;;;;;;32.54;43.55;99248.97;5030669;28;20786;-67
2023/06/15 08:12:01;;;;;;;8.03;7.27;;;;;;;32.48;43.17;99247.63;5046929;28;20287;-66
2023/06/15 08:14:27;;;;;;;7.40;6.47;;;;;;;32.49;43.57;99249.22;5051049;28;20196;-67
2023/06/15 08:16:54;;;;;;;7.63;7.03;;;;;;;32.35;42.83;99246.03;5050716;28;20193;-68
2023/06/15 08:19:22;;;;;;;9.70;7.90;;;;;;;31.78;44.27;99242.53;5050113;28;20662;-67
2023/06/15 08:21:49;;;;;;;12.23;7.17;;;;;;;31.42;45.14;99245.16;5040263;28;20205;-67
2023/06/15 08:24:16;;;;;;;7.93;6.93;;;;;;;31.33;45.66;99249.94;5030859;28;20204;-71
2023/06/15 08:26:43;;;;;;;11.73;8.67;;;;;;;31.16;48.42;99241.03;5033424;28;20673;-69
2023/06/15 08:29:10;;;;;;;6.80;6.27;;;;;;;31.14;45.81;99240.56;5024570;28;20221;-68
2023/06/15 08:31:38;;;;;;;6.43;6.10;;;;;;;30.74;47.37;99239.47;5037085;28;20208;-69
2023/06/15 08:34:04;;;;;;;7.03;6.30;;;;;;;30.95;46.23;99249.28;5034457;28;20193;-69
2023/06/15 08:36:32;;;;;;;6.60;6.20;;;;;;;31.16;45.52;99250.09;5050342;28;20192;-71
2023/06/15 08:38:59;;;;;;;13.07;6.97;;;;;;;31.18;45.80;99250.53;5042673;28;20204;-72
2023/06/15 08:41:27;;;;;;;7.70;7.10;;;;;;;31.28;46.07;99252.09;5042829;28;20202;-75
2023/06/15 08:43:55;;;;;;;7.00;6.40;;;;;;;31.51;45.41;99251.38;5033200;28;20197;-70
2023/06/15 08:46:23;;;;;;;9.10;6.03;;;;;;;31.59;45.12;99246.91;5032374;28;20189;-69
2023/06/15 08:48:52;;;;;;;7.73;6.87;;;;;;;31.62;44.57;99249.81;5039150;28;20248;-68
2023/06/15 08:51:20;;;;;;;10.33;6.77;;;;;;;31.65;46.19;99251.84;5037020;28;20747;-68
2023/06/15 08:53:49;;;;;;;7.33;6.63;;;;;;;31.65;44.88;99248.31;5043914;28;20188;-68
2023/06/15 08:56:16;;;;;;;10.07;7.00;;;;;;;31.55;45.89;99246.81;5041002;28;20192;-68
2023/06/15 08:58:49;;;;;;;7.87;7.47;;;;;;;31.46;45.73;99240.59;5033533;28;20644;-64
2023/06/15 09:01:19;;;;;;;6.97;6.47;;;;;;;31.43;46.06;99238.53;5033324;28;20717;-63
2023/06/15 09:03:47;;;;;;;7.50;5.77;;;;;;;31.58;46.24;99245.31;5034082;28;20266;-67
2023/06/15 09:06:14;;;;;;;6.63;6.23;;;;;;;31.57;44.88;99247.28;5034122;28;20189;-69
2023/06/15 09:08:40;;;;;;;7.23;6.60;;;;;;;31.61;45.61;99245.44;5032836;28;20303;-68
2023/06/15 09:11:09;;;;;;;7.33;6.73;;;;;;;30.48;47.78;99239.59;5033103;28;20197;-68
2023/06/15 09:13:36;;;;;;;7.93;6.83;;;;;;;30.10;49.83;99232.53;5033116;28;20282;-68
2023/06/15 09:16:05;;;;;;;13.73;7.10;;;;;;;30.39;49.48;99238.03;5036142;28;20271;-67
2023/06/15 09:18:43;;;;;;;7.30;6.83;;;;;;;30.53;48.77;99225.69;5033623;28;20713;-68
2023/06/15 09:21:13;;;;;;;7.13;6.53;;;;;;;30.69;48.92;99228.66;5031863;28;20581;-68
2023/06/15 09:23:41;;;;;;;8.07;7.40;;;;;;;30.75;48.63;99232.81;5033086;28;20202;-68
2023/06/15 09:26:10;;;;;;;9.13;6.67;;;;;;;30.72;49.38;99222.50;5044959;28;20219;-69
2023/06/15 09:28:45;;;;;;;10.93;7.33;;;;;;;30.81;49.15;99215.81;5046361;28;20216;-68
2023/06/15 09:31:28;;;;;;;9.33;6.80;;;;;;;31.07;49.10;99216.41;5031618;28;20782;-69
2023/06/15 09:34:01;;;;;;;9.23;7.57;;;;;;;31.21;48.01;99216.94;5030029;28;20227;-69
2023/06/15 09:36:33;;;;;;;7.00;6.30;;;;;;;31.22;48.28;99210.28;5033043;28;20196;-68
2023/06/15 09:39:00;;;;;;;15.57;7.27;;;;;;;31.19;48.29;99210.16;5044520;28;20191;-73
2023/06/15 09:41:28;;;;;;;7.20;6.47;;;;;;;31.19;47.41;99202.72;5022214;28;20289;-73
2023/06/15 09:43:55;;;;;;;11.30;7.17;;;;;;;31.25;47.76;99209.66;5029434;28;20711;-75
2023/06/15 09:46:21;;;;;;;11.23;6.97;;;;;;;31.16;48.85;99189.69;5027924;28;20208;-74
2023/06/15 09:48:48;;;;;;;9.37;6.90;;;;;;;31.17;48.40;99202.28;5032387;28;20221;-76
2023/06/15 09:51:16;;;;;;;7.77;6.87;;;;;;;31.06;48.55;99198.34;5026075;28;20190;-74
2023/06/15 09:53:43;;;;;;;10.27;7.17;;;;;;;31.14;49.92;99191.97;5027943;28;20577;-73
2023/06/15 09:56:11;;;;;;;9.17;7.27;;;;;;;30.97;49.11;99196.81;5029053;28;20193;-72
2023/06/15 09:58:39;;;;;;;10.40;7.07;;;;;;;30.92;49.81;99195.09;5035478;28;20661;-72
2023/06/15 10:01:10;;;;;;;8.87;7.43;;;;;;;30.80;49.84;99191.47;5028171;28;20205;-70
2023/06/15 10:03:43;;;;;;;9.30;6.90;;;;;;;30.55;50.43;99190.53;5034154;28;20279;-70
2023/06/15 10:06:16;;;;;;;10.00;7.53;;;;;;;30.46;52.24;99186.22;5030899;28;20221;-69
2023/06/15 10:08:44;;;;;;;16.20;8.17;;;;;;;30.36;53.37;99184.69;5029993;28;20671;-70
2023/06/15 10:11:12;;;;;;;9.70;7.80;;;;;;;30.17;57.59;99183.53;5032681;28;20625;-69
2023/06/15 10:13:46;;;;;;;8.73;7.90;;;;;;;29.70;60.47;99174.53;5031303;28;20681;-69
2023/06/15 10:16:15;;;;;;;9.10;8.20;;;;;;;29.33;59.39;99173.31;5034782;28;20381;-69
2023/06/15 10:18:44;;;;;;;8.43;7.77;;;;;;;29.15;60.96;99179.16;5028080;28;20197;-70
2023/06/15 10:21:15;;;;;;;9.03;8.33;;;;;;;28.80;65.03;99183.06;5027981;28;20261;-68
2023/06/15 10:23:42;;;;;;;12.20;11.03;;;;;;;28.01;69.85;99181.66;5022775;28;20858;-72
2023/06/15 10:26:10;;;;;;;12.07;11.10;;;;;;;27.34;74.31;99177.47;5029376;28;20618;-69
2023/06/15 10:28:46;;;;;;;12.53;10.57;;;;;;;27.36;73.27;99188.88;5029133;28;20232;-70
2023/06/15 10:31:17;;;;;;;11.47;10.33;;;;;;;27.06;75.49;99184.16;5030090;28;20189;-68
2023/06/15 10:33:50;;;;;;;10.30;9.43;;;;;;;26.74;75.71;99195.31;5027757;28;20204;-70
2023/06/15 10:36:23;;;;;;;10.43;9.53;;;;;;;26.69;75.42;99192.69;5027976;28;20189;-69
2023/06/15 10:38:58;;;;;;;9.70;8.80;;;;;;;26.53;75.65;99196.84;5028399;28;20232;-68
2023/06/15 10:41:26;;;;;;;11.07;10.30;;;;;;;26.38;77.73;99197.19;5023922;28;20652;-68
2023/06/15 10:44:01;;;;;;;12.30;11.00;;;;;;;26.30;78.88;99200.63;5025802;28;20670;-70
2023/06/15 10:46:29;;;;;;;14.40;11.17;;;;;;;26.16;79.03;99210.72;5029355;28;20193;-68
2023/06/15 10:49:02;;;;;;;10.23;9.50;;;;;;;26.05;79.24;99209.34;5029811;28;20577;-69
2023/06/15 10:51:31;;;;;;;10.97;9.83;;;;;;;25.99;79.99;99210.53;5012437;28;20186;-69
2023/06/15 10:54:02;;;;;;;10.90;10.00;;;;;;;25.76;80.92;99206.09;5016684;28;20231;-69
2023/06/15 10:56:29;;;;;;;11.67;10.73;;;;;;;25.59;83.13;99201.22;5032300;28;20254;-69
2023/06/15 10:58:58;;;;;;;12.87;11.73;;;;;;;25.61;82.05;99198.19;5040521;28;20757;-68
2023/06/15 11:01:27;;;;;;;12.07;11.00;;;;;;;25.56;81.74;99198.31;5051394;28;20200;-69
2023/06/15 11:03:55;;;;;;;11.37;10.67;;;;;;;25.22;84.60;99200.50;5024246;28;20236;-68
2023/06/15 11:06:23;;;;;;;10.80;10.00;;;;;;;25.12;82.70;99196.06;5032393;28;20189;-67
2023/06/15 11:08:52;;;;;;;11.43;10.73;;;;;;;25.07;87.58;99207.00;5042562;28;20789;-69
2023/06/15 11:11:20;;;;;;;10.97;10.30;;;;;;;24.73;87.65;99215.44;5038426;28;20247;-68
2023/06/15 11:14:02;;;;;;;11.67;10.77;;;;;;;24.71;88.14;99211.41;5031720;28;20225;-68
2023/06/15 11:16:32;;;;;;;12.33;11.13;;;;;;;24.60;89.15;99221.59;5032044;28;20275;-69
2023/06/15 11:19:19;;;;;;;11.63;10.77;;;;;;;24.82;88.30;99231.88;5031731;28;20739;-68
2023/06/15 11:21:56;;;;;;;10.70;9.73;;;;;;;24.89;86.35;99232.31;5030512;28;20247;-68
2023/06/15 11:24:25;;;;;;;10.53;8.20;;;;;;;24.98;85.82;99232.47;5029191;28;20239;-69
2023/06/15 11:26:52;;;;;;;10.33;7.37;;;;;;;25.03;85.49;99223.09;5030236;28;20853;-70
2023/06/15 11:29:22;;;;;;;9.83;8.47;;;;;;;25.24;85.12;99225.50;5023722;28;20253;-70
2023/06/15 11:31:51;;;;;;;9.53;8.43;;;;;;;25.41;84.46;99209.44;5028657;28;20193;-71
2023/06/15 11:34:18;;;;;;;8.50;7.60;;;;;;;25.56;81.75;99211.91;5026590;28;20193;-71